Time;durP1;ratioP1;P1;durP2;ratioP2;P2;SDS_P1;SDS_P2;PMS_P1;PMS_P2;Temp;Humidity;BMP_temperature;BMP_pressure;BME280_temperature;BME280_humidity;BME280_pressure;Samples;Min_cycle;Max_cycle;Signal;HPM_P1;HPM_P2
2022/07/18 00:00:11;;;;;;;3.13;1.98;;;16.20;95.70;;;;;;5053817;28;20206;-65
2022/07/18 00:02:38;;;;;;;1.97;1.63;;;16.20;95.80;;;;;;5052892;28;20697;-66
2022/07/18 00:05:07;;;;;;;2.20;2.00;;;16.20;95.90;;;;;;5055243;28;20230;-64
2022/07/18 00:07:34;;;;;;;2.23;1.67;;;16.20;96.10;;;;;;5054593;28;20233;-64
2022/07/18 00:10:01;;;;;;;3.00;1.80;;;16.20;96.30;;;;;;5048232;28;20653;-65
2022/07/18 00:12:28;;;;;;;3.67;1.93;;;16.10;96.30;;;;;;5052191;28;20209;-65
2022/07/18 00:14:55;;;;;;;3.50;1.90;;;16.10;96.40;;;;;;5055005;28;20201;-65
2022/07/18 00:17:22;;;;;;;2.30;2.10;;;16.10;96.60;;;;;;5055224;28;20297;-66
2022/07/18 00:19:48;;;;;;;4.53;2.10;;;16.10;96.70;;;;;;5052851;28;20208;-65
2022/07/18 00:22:17;;;;;;;5.80;2.13;;;16.00;96.80;;;;;;5055418;28;20535;-65
2022/07/18 00:24:43;;;;;;;3.90;2.20;;;16.00;97.00;;;;;;5054864;28;20570;-66
2022/07/18 00:27:10;;;;;;;4.67;2.20;;;16.00;97.10;;;;;;5054922;28;20578;-66
2022/07/18 00:29:38;;;;;;;4.05;2.45;;;15.90;97.20;;;;;;5047699;28;20212;-64
2022/07/18 00:32:09;;;;;;;4.43;2.00;;;15.90;97.40;;;;;;5055630;28;20214;-65
2022/07/18 00:34:36;;;;;;;5.23;2.10;;;15.80;97.60;;;;;;5055097;28;20216;-67
2022/07/18 00:37:04;;;;;;;4.23;2.63;;;15.80;97.80;;;;;;5051795;28;20205;-65
2022/07/18 00:39:32;;;;;;;3.33;2.10;;;15.80;97.90;;;;;;5053271;28;20210;-65
2022/07/18 00:41:59;;;;;;;5.83;2.70;;;15.70;98.00;;;;;;5054535;28;20209;-65
2022/07/18 00:44:28;;;;;;;5.03;2.43;;;15.70;98.20;;;;;;5053506;28;20210;-66
2022/07/18 00:46:57;;;;;;;6.90;2.23;;;15.70;98.30;;;;;;5054728;28;20242;-66
2022/07/18 00:49:24;;;;;;;7.93;2.70;;;15.60;98.40;;;;;;5054166;28;20582;-65
2022/07/18 00:51:52;;;;;;;2.20;1.80;;;15.60;98.60;;;;;;5039648;28;20233;-64
2022/07/18 00:54:19;;;;;;;5.27;2.20;;;15.60;98.80;;;;;;5053557;28;20202;-65
2022/07/18 00:56:49;;;;;;;3.17;1.93;;;15.60;99.10;;;;;;5055206;28;20212;-65
2022/07/18 00:59:16;;;;;;;4.63;2.27;;;15.50;99.00;;;;;;5055230;28;20209;-65
2022/07/18 01:01:43;;;;;;;6.67;2.13;;;15.50;99.20;;;;;;5052933;28;20213;-68
2022/07/18 01:04:11;;;;;;;5.57;1.90;;;15.50;99.40;;;;;;5053893;28;20198;-68
2022/07/18 01:06:38;;;;;;;3.73;2.30;;;15.50;99.60;;;;;;5042788;28;20214;-68
2022/07/18 01:09:05;;;;;;;4.30;2.20;;;15.40;99.70;;;;;;5047930;28;20238;-68
2022/07/18 01:11:32;;;;;;;7.17;2.50;;;15.40;99.80;;;;;;5049777;28;20719;-68
2022/07/18 01:14:01;;;;;;;3.57;2.30;;;15.40;99.90;;;;;;5052488;28;20209;-69
2022/07/18 01:16:28;;;;;;;4.70;2.50;;;15.40;99.90;;;;;;5053906;28;20568;-68
2022/07/18 01:18:55;;;;;;;4.10;2.33;;;15.40;99.90;;;;;;5053505;28;20206;-68
2022/07/18 01:21:23;;;;;;;3.90;2.33;;;15.30;99.90;;;;;;5049392;28;20210;-68
2022/07/18 01:23:49;;;;;;;4.60;2.10;;;15.30;99.90;;;;;;5053482;28;20213;-67
2022/07/18 01:26:17;;;;;;;3.17;1.97;;;15.30;99.90;;;;;;5057068;28;20241;-68
2022/07/18 01:28:44;;;;;;;3.60;2.40;;;15.30;99.90;;;;;;5056721;28;20229;-67
2022/07/18 01:31:11;;;;;;;4.30;2.53;;;15.20;99.90;;;;;;5056323;28;20217;-67
2022/07/18 01:33:38;;;;;;;3.73;2.33;;;15.30;99.90;;;;;;5052121;28;20207;-68
2022/07/18 01:36:07;;;;;;;3.23;2.63;;;15.30;99.90;;;;;;5036883;28;20206;-68
2022/07/18 01:38:36;;;;;;;5.90;2.60;;;15.20;99.90;;;;;;5051288;28;20218;-68
2022/07/18 01:41:03;;;;;;;4.27;2.40;;;15.20;99.90;;;;;;5043949;28;20258;-67
2022/07/18 01:43:30;;;;;;;4.00;2.67;;;15.20;99.90;;;;;;5054683;28;20264;-68
2022/07/18 01:45:57;;;;;;;5.33;2.77;;;15.20;99.90;;;;;;5043951;28;20206;-67
2022/07/18 01:48:24;;;;;;;3.07;2.60;;;15.20;99.90;;;;;;5051169;28;20241;-68
2022/07/18 01:50:52;;;;;;;3.40;2.67;;;15.20;99.90;;;;;;5056123;28;20210;-68
2022/07/18 01:53:18;;;;;;;6.40;3.13;;;15.10;99.90;;;;;;5055349;28;20571;-68
2022/07/18 01:55:47;;;;;;;6.07;2.77;;;15.10;99.90;;;;;;5056122;28;20581;-68
2022/07/18 01:58:13;;;;;;;5.43;2.73;;;15.10;99.90;;;;;;5054058;28;20222;-68
2022/07/18 02:00:40;;;;;;;4.13;2.53;;;15.10;99.90;;;;;;5056736;28;20214;-68
2022/07/18 02:03:07;;;;;;;4.10;2.73;;;15.00;99.90;;;;;;5056001;28;20581;-68
2022/07/18 02:05:34;;;;;;;4.73;2.70;;;15.00;99.90;;;;;;5056761;28;20217;-68
2022/07/18 02:08:00;;;;;;;4.60;2.60;;;15.00;99.90;;;;;;5056790;28;20237;-67
2022/07/18 02:10:27;;;;;;;6.23;3.10;;;15.00;99.90;;;;;;5055176;28;20659;-67
2022/07/18 02:12:55;;;;;;;6.83;2.60;;;15.00;99.90;;;;;;5055809;28;20210;-69
2022/07/18 02:15:22;;;;;;;5.10;3.13;;;14.90;99.90;;;;;;5055625;28;20206;-69
2022/07/18 02:17:49;;;;;;;3.57;2.80;;;14.90;99.90;;;;;;5055918;28;20198;-67
2022/07/18 02:20:16;;;;;;;4.80;2.90;;;14.90;99.90;;;;;;5054772;28;20561;-69
2022/07/18 02:22:43;;;;;;;3.20;2.87;;;14.90;99.90;;;;;;5055008;28;20202;-68
2022/07/18 02:25:11;;;;;;;4.83;2.73;;;14.80;99.90;;;;;;5055359;28;20230;-67
2022/07/18 02:27:38;;;;;;;3.00;2.70;;;14.90;99.90;;;;;;5055681;28;20316;-68
2022/07/18 02:30:09;;;;;;;3.20;2.70;;;14.80;99.90;;;;;;5053439;28;20662;-68
2022/07/18 02:32:37;;;;;;;6.17;3.30;;;14.80;99.90;;;;;;5049418;28;20210;-67
2022/07/18 02:35:05;;;;;;;6.03;2.90;;;14.80;99.90;;;;;;5055596;28;20210;-67
2022/07/18 02:37:32;;;;;;;4.40;3.47;;;14.80;99.90;;;;;;5055795;28;20309;-68
2022/07/18 02:39:58;;;;;;;4.20;2.63;;;14.80;99.90;;;;;;5054128;28;20206;-67
2022/07/18 02:42:25;;;;;;;5.17;2.97;;;14.70;99.90;;;;;;5054043;28;20198;-68
2022/07/18 02:44:52;;;;;;;6.70;3.20;;;14.70;99.90;;;;;;5040677;28;20221;-68
2022/07/18 02:47:20;;;;;;;4.67;2.90;;;14.70;99.90;;;;;;5051561;28;20233;-68
2022/07/18 02:49:47;;;;;;;3.90;2.87;;;14.70;99.90;;;;;;5055351;28;20230;-68
2022/07/18 02:52:14;;;;;;;5.40;2.93;;;14.70;99.90;;;;;;5054895;28;20205;-68
2022/07/18 02:54:40;;;;;;;4.33;3.00;;;14.70;99.90;;;;;;5053257;28;20210;-68
2022/07/18 02:57:08;;;;;;;4.43;3.20;;;14.70;99.90;;;;;;5041631;28;20217;-69
2022/07/18 02:59:35;;;;;;;5.60;3.00;;;14.70;99.90;;;;;;5055175;28;20206;-67
2022/07/18 03:02:02;;;;;;;4.77;2.90;;;14.70;99.90;;;;;;5054716;28;20285;-68
2022/07/18 03:04:31;;;;;;;3.97;2.97;;;14.70;99.90;;;;;;5051592;28;20260;-70
2022/07/18 03:06:58;;;;;;;3.67;2.83;;;14.60;99.90;;;;;;5055514;28;20218;-69
2022/07/18 03:09:26;;;;;;;3.30;2.70;;;14.60;99.90;;;;;;5055236;28;20221;-68
2022/07/18 03:11:54;;;;;;;4.77;2.80;;;14.60;99.90;;;;;;5055083;28;20214;-69
2022/07/18 03:14:20;;;;;;;4.20;2.80;;;14.60;99.90;;;;;;5042119;28;20206;-68
2022/07/18 03:16:47;;;;;;;7.47;3.13;;;14.60;99.90;;;;;;5055027;28;20210;-68
2022/07/18 03:19:14;;;;;;;4.33;2.97;;;14.60;99.90;;;;;;5054854;28;20205;-68
2022/07/18 03:21:42;;;;;;;8.43;3.07;;;14.60;99.90;;;;;;5052646;28;20213;-67
2022/07/18 03:24:10;;;;;;;4.30;2.57;;;14.60;99.90;;;;;;5052950;28;20215;-68
2022/07/18 03:26:41;;;;;;;5.50;3.00;;;14.70;99.90;;;;;;5054824;28;20234;-68
2022/07/18 03:29:07;;;;;;;5.37;2.80;;;14.70;99.90;;;;;;5038491;28;20577;-68
2022/07/18 03:31:34;;;;;;;3.60;3.30;;;14.80;99.90;;;;;;5041262;28;20241;-68
2022/07/18 03:34:01;;;;;;;5.20;3.13;;;14.80;99.90;;;;;;5054021;28;20214;-68
2022/07/18 03:36:28;;;;;;;3.20;2.63;;;14.90;99.90;;;;;;5051807;28;20603;-68
2022/07/18 03:38:56;;;;;;;3.53;2.60;;;14.90;99.90;;;;;;5054411;28;20198;-69
2022/07/18 03:41:23;;;;;;;4.20;2.80;;;14.90;99.90;;;;;;5054010;28;20202;-68
2022/07/18 03:43:50;;;;;;;4.50;3.27;;;14.90;99.90;;;;;;5053463;28;20210;-68
2022/07/18 03:46:16;;;;;;;4.93;2.83;;;15.00;99.90;;;;;;5052473;28;20201;-68
2022/07/18 03:48:43;;;;;;;5.07;2.90;;;15.00;99.90;;;;;;5040615;28;20788;-68
2022/07/18 03:51:10;;;;;;;4.60;2.93;;;15.10;99.90;;;;;;5045540;28;20215;-68
2022/07/18 03:53:37;;;;;;;4.17;2.93;;;15.20;99.90;;;;;;5047756;28;20202;-68
2022/07/18 03:56:05;;;;;;;6.13;2.80;;;15.20;99.90;;;;;;5053664;28;20244;-68
2022/07/18 03:58:32;;;;;;;3.33;2.80;;;15.30;99.90;;;;;;5054246;28;20577;-68
2022/07/18 04:00:59;;;;;;;4.57;2.90;;;15.30;99.90;;;;;;5054238;28;20580;-67
2022/07/18 04:03:26;;;;;;;6.87;2.80;;;15.40;99.90;;;;;;5054956;28;20206;-68
2022/07/18 04:05:53;;;;;;;5.63;3.43;;;15.40;99.90;;;;;;5041732;28;20213;-67
2022/07/18 04:08:19;;;;;;;5.13;2.93;;;15.50;99.90;;;;;;5053597;28;20229;-68
2022/07/18 04:10:46;;;;;;;5.27;2.83;;;15.50;99.90;;;;;;5053557;28;20217;-69
2022/07/18 04:13:15;;;;;;;3.43;2.80;;;15.50;99.90;;;;;;5051303;28;20206;-67
2022/07/18 04:15:41;;;;;;;4.00;2.70;;;15.50;99.90;;;;;;5052169;28;20202;-68
2022/07/18 04:18:09;;;;;;;3.80;2.53;;;15.50;99.90;;;;;;5053880;28;20206;-68
2022/07/18 04:20:38;;;;;;;3.93;2.97;;;15.50;99.90;;;;;;5053618;28;20229;-68
2022/07/18 04:23:07;;;;;;;3.13;2.60;;;15.50;99.90;;;;;;5039701;28;20202;-67
2022/07/18 04:25:36;;;;;;;5.27;2.77;;;15.60;99.90;;;;;;5051452;28;20240;-69
2022/07/18 04:28:04;;;;;;;4.90;3.03;;;15.60;99.90;;;;;;5051597;28;20209;-68
2022/07/18 04:30:33;;;;;;;2.90;2.47;;;15.60;99.90;;;;;;5042719;28;20236;-68
2022/07/18 04:33:03;;;;;;;5.57;3.23;;;15.70;99.90;;;;;;5051661;28;20202;-67
2022/07/18 04:35:30;;;;;;;5.70;3.00;;;15.70;99.90;;;;;;5040629;28;20209;-68
2022/07/18 04:37:57;;;;;;;4.53;2.80;;;15.70;99.90;;;;;;5047502;28;20622;-68
2022/07/18 04:40:24;;;;;;;5.70;2.93;;;15.80;99.90;;;;;;5052860;28;20194;-68
2022/07/18 04:42:51;;;;;;;6.77;2.50;;;15.90;99.90;;;;;;5052206;28;20205;-67
2022/07/18 04:45:21;;;;;;;3.17;2.57;;;15.90;99.90;;;;;;5052260;28;20224;-68
2022/07/18 04:47:49;;;;;;;5.93;2.47;;;16.00;99.90;;;;;;5052257;28;20328;-68
2022/07/18 04:50:16;;;;;;;3.43;2.33;;;16.00;99.90;;;;;;5052665;28;20237;-68
2022/07/18 04:52:44;;;;;;;3.90;2.40;;;16.10;99.90;;;;;;5053264;28;20214;-69
2022/07/18 04:55:12;;;;;;;3.90;2.40;;;16.10;99.90;;;;;;5053105;28;20209;-67
2022/07/18 04:57:39;;;;;;;3.53;2.40;;;16.20;99.90;;;;;;5051067;28;20217;-67
2022/07/18 05:00:10;;;;;;;4.73;2.50;;;16.30;99.90;;;;;;5054094;28;20575;-68
2022/07/18 05:02:40;;;;;;;4.03;3.05;;;16.30;99.90;;;;;;5056657;28;20217;-67
2022/07/18 05:05:09;;;;;;;3.97;2.77;;;16.30;99.90;;;;;;5056877;28;20206;-68
2022/07/18 05:07:36;;;;;;;4.97;2.53;;;16.50;99.90;;;;;;5055993;28;20563;-68
2022/07/18 05:10:07;;;;;;;4.03;2.30;;;16.60;99.90;;;;;;5057274;28;20222;-68
2022/07/18 05:12:34;;;;;;;3.33;2.40;;;16.70;99.90;;;;;;5057062;28;20209;-68
2022/07/18 05:15:00;;;;;;;4.93;2.93;;;16.70;99.90;;;;;;5054772;28;20216;-68
2022/07/18 05:17:28;;;;;;;4.28;2.85;;;16.80;99.90;;;;;;5054506;28;20218;-69
2022/07/18 05:19:54;;;;;;;4.40;2.58;;;16.90;99.90;;;;;;5054775;28;20212;-68
2022/07/18 05:22:23;;;;;;;4.82;2.78;;;17.00;99.90;;;;;;5039921;28;20580;-68
2022/07/18 05:24:49;;;;;;;4.65;2.95;;;17.10;99.90;;;;;;5051058;28;20736;-68
2022/07/18 05:27:16;;;;;;;9.97;3.27;;;17.20;99.90;;;;;;5049608;28;20220;-68
2022/07/18 05:29:43;;;;;;;3.08;2.10;;;17.30;99.90;;;;;;5055767;28;20602;-68
2022/07/18 05:32:11;;;;;;;2.13;1.88;;;17.30;99.90;;;;;;5055391;28;20209;-69
2022/07/18 05:34:38;;;;;;;6.30;2.42;;;17.40;99.90;;;;;;5056758;28;20647;-68
2022/07/18 05:37:04;;;;;;;6.63;2.13;;;17.50;99.90;;;;;;5056360;28;20206;-68
2022/07/18 05:39:33;;;;;;;4.30;1.95;;;17.60;99.90;;;;;;5052790;28;20205;-67
2022/07/18 05:41:59;;;;;;;2.33;2.10;;;17.60;99.90;;;;;;5056594;28;20206;-68
2022/07/18 05:44:26;;;;;;;3.00;2.35;;;17.70;99.90;;;;;;5051226;28;20210;-68
2022/07/18 05:46:53;;;;;;;3.08;1.95;;;17.80;99.90;;;;;;5054279;28;20238;-68
2022/07/18 05:49:20;;;;;;;3.70;2.47;;;17.80;99.90;;;;;;5054709;28;20569;-67
2022/07/18 05:51:47;;;;;;;2.97;2.17;;;17.90;99.90;;;;;;5056440;28;20677;-68
2022/07/18 05:54:18;;;;;;;5.43;2.67;;;18.00;99.90;;;;;;5056345;28;20217;-68
2022/07/18 05:56:47;;;;;;;2.65;1.83;;;18.20;99.90;;;;;;5056377;28;20292;-69
2022/07/18 05:59:14;;;;;;;4.22;2.10;;;18.20;99.90;;;;;;5055117;28;20641;-68
2022/07/18 06:01:41;;;;;;;3.38;2.03;;;18.30;99.90;;;;;;5055610;28;20568;-68
2022/07/18 06:04:08;;;;;;;3.25;2.13;;;18.40;99.90;;;;;;5055791;28;20209;-67
2022/07/18 06:06:35;;;;;;;4.15;1.90;;;18.40;99.90;;;;;;5055326;28;20206;-69
2022/07/18 06:09:02;;;;;;;3.60;2.00;;;18.50;99.90;;;;;;5052107;28;20222;-69
2022/07/18 06:11:29;;;;;;;3.65;2.22;;;18.60;99.90;;;;;;5052394;28;20234;-69
2022/07/18 06:13:58;;;;;;;4.97;2.28;;;18.60;99.90;;;;;;5054249;28;20206;-69
2022/07/18 06:16:24;;;;;;;5.25;2.20;;;18.70;99.90;;;;;;5049019;28;20218;-69
2022/07/18 06:18:51;;;;;;;3.35;2.15;;;18.80;99.90;;;;;;5052762;28;20209;-68
2022/07/18 06:21:18;;;;;;;3.25;2.20;;;18.80;99.90;;;;;;5052606;28;20206;-66
2022/07/18 06:23:45;;;;;;;3.88;2.45;;;18.90;99.90;;;;;;5054350;28;20213;-68
2022/07/18 06:26:12;;;;;;;6.03;2.33;;;18.90;99.90;;;;;;5055451;28;20256;-67
2022/07/18 06:28:39;;;;;;;5.03;2.05;;;19.00;99.90;;;;;;5049814;28;20213;-67
2022/07/18 06:31:07;;;;;;;4.65;2.03;;;19.10;99.90;;;;;;5052714;28;20209;-69
2022/07/18 06:33:35;;;;;;;5.07;2.13;;;19.10;99.90;;;;;;5054850;28;20214;-69
2022/07/18 06:36:01;;;;;;;4.43;2.25;;;19.20;99.90;;;;;;5055929;28;20201;-68
2022/07/18 06:38:28;;;;;;;4.05;2.67;;;19.30;99.90;;;;;;5055291;28;20373;-68
2022/07/18 06:40:55;;;;;;;4.47;2.90;;;19.30;99.90;;;;;;5054520;28;20655;-68
2022/07/18 06:43:22;;;;;;;5.43;2.40;;;19.40;99.90;;;;;;5056095;28;20679;-68
2022/07/18 06:45:51;;;;;;;2.55;1.90;;;19.40;99.90;;;;;;5050843;28;20229;-67
2022/07/18 06:48:20;;;;;;;4.65;2.10;;;19.50;99.90;;;;;;5049172;28;20329;-67
2022/07/18 06:50:46;;;;;;;3.88;1.80;;;19.60;99.90;;;;;;5051012;28;20233;-68
2022/07/18 06:53:13;;;;;;;3.53;2.08;;;19.70;99.90;;;;;;5055008;28;20218;-67
2022/07/18 06:55:40;;;;;;;3.63;2.10;;;19.70;99.90;;;;;;5048425;28;20210;-68
2022/07/18 06:58:07;;;;;;;5.55;2.00;;;19.80;99.90;;;;;;5053840;28;20646;-68
2022/07/18 07:00:33;;;;;;;4.05;2.13;;;19.80;99.90;;;;;;5056479;28;20210;-72
2022/07/18 07:03:00;;;;;;;4.07;2.33;;;19.90;99.90;;;;;;5056455;28;20217;-72
2022/07/18 07:05:28;;;;;;;2.63;1.88;;;19.90;99.90;;;;;;5057588;28;20292;-73
2022/07/18 07:07:55;;;;;;;3.25;1.63;;;20.00;99.90;;;;;;5049868;28;20207;-66
2022/07/18 07:10:22;;;;;;;3.38;2.50;;;20.00;99.90;;;;;;5049197;28;20237;-67
2022/07/18 07:12:50;;;;;;;4.65;2.22;;;20.10;99.90;;;;;;5037267;28;20198;-67
2022/07/18 07:15:20;;;;;;;5.38;2.20;;;20.10;99.90;;;;;;5045032;28;20213;-68
2022/07/18 07:17:47;;;;;;;3.42;2.90;;;20.20;99.90;;;;;;5044334;28;20564;-67
2022/07/18 07:20:17;;;;;;;4.65;2.28;;;20.20;99.90;;;;;;5044919;28;20202;-66
2022/07/18 07:22:47;;;;;;;4.90;2.58;;;20.30;99.90;;;;;;5048890;28;20320;-65
2022/07/18 07:25:15;;;;;;;4.30;2.45;;;20.30;99.90;;;;;;5048742;28;20218;-67
2022/07/18 07:27:43;;;;;;;3.05;2.50;;;20.30;99.90;;;;;;5051030;28;20221;-66
2022/07/18 07:30:11;;;;;;;4.05;2.78;;;20.30;99.90;;;;;;5047346;28;20759;-66
2022/07/18 07:32:39;;;;;;;3.67;2.70;;;20.30;99.90;;;;;;5047261;28;20206;-67
2022/07/18 07:35:10;;;;;;;3.10;2.60;;;20.30;99.90;;;;;;5052078;28;20521;-67
2022/07/18 07:37:37;;;;;;;3.92;3.30;;;20.30;99.90;;;;;;5049363;28;20194;-66
2022/07/18 07:40:07;;;;;;;3.72;3.20;;;20.30;99.90;;;;;;5049766;28;20574;-67
2022/07/18 07:42:33;;;;;;;5.30;2.88;;;20.40;99.90;;;;;;5051904;28;20221;-68
2022/07/18 07:45:00;;;;;;;5.97;2.97;;;20.30;99.90;;;;;;5050897;28;20205;-68
2022/07/18 07:47:29;;;;;;;3.95;2.90;;;20.40;99.90;;;;;;5049286;28;20628;-67
2022/07/18 07:49:56;;;;;;;4.20;2.38;;;20.40;99.90;;;;;;5051404;28;20236;-67
2022/07/18 07:52:23;;;;;;;4.45;2.95;;;20.50;99.90;;;;;;5054380;28;20229;-67
2022/07/18 07:54:50;;;;;;;5.95;3.03;;;20.60;99.90;;;;;;5043429;28;20730;-67
2022/07/18 07:57:19;;;;;;;5.88;2.88;;;20.70;99.90;;;;;;5053488;28;20205;-67
2022/07/18 07:59:46;;;;;;;4.28;2.78;;;20.80;99.90;;;;;;5054699;28;20212;-68
2022/07/18 08:02:14;;;;;;;4.78;2.67;;;21.00;99.90;;;;;;5049479;28;20206;-68
2022/07/18 08:04:41;;;;;;;5.40;2.70;;;21.10;99.90;;;;;;5049835;28;20284;-68
2022/07/18 08:07:09;;;;;;;5.43;3.42;;;21.20;99.90;;;;;;5050489;28;20211;-67
2022/07/18 08:09:36;;;;;;;4.32;2.38;;;21.40;99.90;;;;;;5041604;28;20217;-67
2022/07/18 08:12:03;;;;;;;3.22;2.17;;;21.50;99.90;;;;;;5048855;28;20202;-65
2022/07/18 08:14:32;;;;;;;4.43;2.30;;;21.70;99.90;;;;;;5045491;28;20205;-67
2022/07/18 08:16:59;;;;;;;3.60;2.00;;;21.80;99.30;;;;;;5041207;28;20260;-67
2022/07/18 08:19:26;;;;;;;4.13;1.85;;;22.00;99.00;;;;;;5041678;28;20670;-67
2022/07/18 08:21:53;;;;;;;2.30;1.67;;;22.20;98.60;;;;;;5043280;28;20202;-67
2022/07/18 08:24:20;;;;;;;4.80;1.70;;;22.30;98.00;;;;;;5040435;28;20571;-67
2022/07/18 08:26:46;;;;;;;4.05;1.92;;;22.30;97.90;;;;;;5036603;28;20591;-66
2022/07/18 08:29:13;;;;;;;4.78;1.90;;;22.40;97.60;;;;;;5039223;28;20210;-68
2022/07/18 08:31:41;;;;;;;3.88;1.83;;;22.40;97.40;;;;;;5042409;28;20212;-67
2022/07/18 08:34:08;;;;;;;3.60;2.10;;;22.50;97.50;;;;;;5042143;28;20206;-69
2022/07/18 08:36:35;;;;;;;3.92;1.73;;;22.70;97.60;;;;;;5038398;28;20202;-67
2022/07/18 08:39:02;;;;;;;2.72;1.80;;;22.90;97.00;;;;;;5042497;28;20210;-69
2022/07/18 08:41:29;;;;;;;4.68;2.10;;;22.90;96.50;;;;;;5046752;28;20212;-68
2022/07/18 08:43:56;;;;;;;2.75;2.00;;;23.00;96.50;;;;;;5044981;28;20214;-69
2022/07/18 08:46:27;;;;;;;4.68;1.90;;;23.10;96.40;;;;;;5043862;28;20202;-68
2022/07/18 08:48:55;;;;;;;4.25;2.13;;;23.10;96.00;;;;;;5043306;28;20194;-67
2022/07/18 08:51:23;;;;;;;2.47;1.65;;;23.20;95.80;;;;;;5043506;28;20234;-66
2022/07/18 08:53:51;;;;;;;5.78;2.00;;;23.40;95.70;;;;;;5044945;28;20658;-68
2022/07/18 08:56:18;;;;;;;3.28;1.55;;;23.30;95.60;;;;;;5050177;28;20226;-67
2022/07/18 08:58:45;;;;;;;2.88;1.63;;;23.40;95.60;;;;;;5048074;28;20214;-67
2022/07/18 09:01:12;;;;;;;4.85;1.60;;;23.50;95.20;;;;;;5047214;28;20210;-67
2022/07/18 09:03:39;;;;;;;2.97;1.52;;;23.60;94.90;;;;;;5042624;28;20207;-66
2022/07/18 09:06:09;;;;;;;4.50;1.92;;;23.80;94.70;;;;;;5051178;28;20557;-66
2022/07/18 09:08:37;;;;;;;3.33;1.73;;;24.00;94.40;;;;;;5050700;28;20232;-68
2022/07/18 09:11:09;;;;;;;2.53;2.00;;;24.20;94.20;;;;;;5048401;28;20317;-67
2022/07/18 09:13:42;;;;;;;3.78;1.73;;;24.30;93.60;;;;;;5052032;28;20547;-67
2022/07/18 09:16:10;;;;;;;3.08;1.77;;;24.30;93.70;;;;;;5047650;28;20292;-68
2022/07/18 09:18:39;;;;;;;3.15;1.80;;;24.30;93.20;;;;;;5041368;28;20710;-68
2022/07/18 09:21:09;;;;;;;2.83;1.85;;;24.40;92.70;;;;;;5037026;28;20612;-66
2022/07/18 09:23:39;;;;;;;2.45;1.70;;;24.30;92.20;;;;;;5046388;28;20561;-68
2022/07/18 09:26:06;;;;;;;4.35;1.55;;;24.30;92.20;;;;;;5041140;28;20225;-68
2022/07/18 09:28:47;;;;;;;2.60;1.90;;;24.20;92.00;;;;;;5049654;28;20214;-68
2022/07/18 09:31:19;;;;;;;3.95;1.60;;;24.30;92.20;;;;;;5047312;28;20682;-67
2022/07/18 09:33:52;;;;;;;3.00;1.60;;;24.30;92.30;;;;;;5043542;28;20291;-68
2022/07/18 09:36:21;;;;;;;3.42;1.40;;;24.60;92.10;;;;;;5048122;28;20213;-68
2022/07/18 09:38:48;;;;;;;3.08;1.50;;;24.70;91.80;;;;;;5051113;28;20212;-67
2022/07/18 09:41:15;;;;;;;5.80;2.08;;;24.90;91.30;;;;;;5049104;28;20642;-67
2022/07/18 09:43:42;;;;;;;5.57;1.58;;;25.10;90.90;;;;;;5040783;28;20214;-69
2022/07/18 09:46:09;;;;;;;4.13;2.15;;;25.20;90.30;;;;;;5046726;28;20205;-66
2022/07/18 09:48:36;;;;;;;6.30;1.95;;;25.20;90.00;;;;;;5053112;28;20209;-69
2022/07/18 09:51:05;;;;;;;2.78;1.73;;;25.10;89.30;;;;;;5048022;28;20683;-69
2022/07/18 09:53:34;;;;;;;3.20;1.50;;;25.10;89.40;;;;;;5041082;28;20620;-67
2022/07/18 09:56:04;;;;;;;1.63;1.50;;;25.20;89.50;;;;;;5048472;28;20678;-68
2022/07/18 09:58:33;;;;;;;4.70;1.60;;;25.40;88.60;;;;;;5049786;28;20213;-67
2022/07/18 10:01:02;;;;;;;3.60;1.50;;;25.50;88.00;;;;;;5053317;28;20203;-66
2022/07/18 10:03:29;;;;;;;3.42;1.80;;;25.60;87.00;;;;;;5055390;28;20244;-67
2022/07/18 10:05:58;;;;;;;4.45;1.67;;;25.60;86.10;;;;;;5041642;28;20240;-66
2022/07/18 10:08:26;;;;;;;2.47;1.50;;;25.70;86.30;;;;;;5039455;28;20210;-68
2022/07/18 10:10:58;;;;;;;2.83;1.50;;;25.80;85.00;;;;;;5042511;28;20214;-66
2022/07/18 10:13:26;;;;;;;3.03;1.48;;;25.80;84.70;;;;;;5047195;28;20210;-66
2022/07/18 10:15:53;;;;;;;4.20;1.83;;;25.80;84.90;;;;;;5052181;28;20198;-68
2022/07/18 10:18:23;;;;;;;4.40;1.73;;;25.80;84.90;;;;;;5049717;28;20208;-67
2022/07/18 10:20:55;;;;;;;1.95;1.45;;;25.80;84.00;;;;;;5047204;28;20555;-67
2022/07/18 10:23:25;;;;;;;3.25;1.50;;;25.80;84.10;;;;;;5040176;28;20213;-68
2022/07/18 10:26:11;;;;;;;4.10;1.55;;;25.90;83.80;;;;;;5047083;28;20236;-67
2022/07/18 10:29:12;;;;;;;3.50;1.58;;;26.00;83.40;;;;;;5054598;28;20247;-68
2022/07/18 10:31:42;;;;;;;4.60;1.42;;;26.20;83.60;;;;;;5052136;28;20228;-66
2022/07/18 10:34:12;;;;;;;2.72;1.65;;;26.30;82.10;;;;;;5051450;28;20617;-66
2022/07/18 10:36:41;;;;;;;2.72;1.50;;;26.30;81.30;;;;;;5048346;28;20202;-66
2022/07/18 10:39:13;;;;;;;2.67;1.50;;;26.30;81.20;;;;;;5049106;28;20217;-68
2022/07/18 10:42:20;;;;;;;5.05;2.15;;;26.20;80.60;;;;;;5041559;28;20195;-67
2022/07/18 10:44:48;;;;;;;2.40;1.33;;;26.20;81.00;;;;;;5041775;28;20207;-68
2022/07/18 10:47:20;;;;;;;5.22;1.48;;;26.10;80.70;;;;;;5041806;28;20230;-68
2022/07/18 10:50:11;;;;;;;2.47;1.35;;;26.20;81.20;;;;;;5040354;28;20233;-68
2022/07/18 10:52:57;;;;;;;2.17;1.50;;;26.10;80.00;;;;;;5036958;28;20229;-66
2022/07/18 10:55:33;;;;;;;2.20;1.50;;;26.10;80.30;;;;;;5053444;28;20210;-68
2022/07/18 10:58:21;;;;;;;2.33;1.52;;;26.20;80.40;;;;;;5038636;28;20206;-68
2022/07/18 11:00:51;;;;;;;2.50;1.45;;;26.40;79.60;;;;;;5049580;28;20213;-66
2022/07/18 11:03:25;;;;;;;4.32;1.48;;;26.40;79.00;;;;;;5046413;28;20202;-68
2022/07/18 11:05:53;;;;;;;2.13;1.55;;;26.30;78.90;;;;;;5053103;28;20210;-67
2022/07/18 11:08:24;;;;;;;2.13;1.40;;;26.40;78.70;;;;;;5054380;28;20205;-66
2022/07/18 11:11:11;;;;;;;1.75;1.20;;;26.40;78.30;;;;;;5053261;28;20708;-66
2022/07/18 11:13:41;;;;;;;1.30;1.10;;;26.50;78.20;;;;;;5047074;28;20209;-68
2022/07/18 11:16:11;;;;;;;8.13;1.70;;;26.50;77.90;;;;;;5052687;28;20241;-64
2022/07/18 11:19:11;;;;;;;2.47;1.30;;;26.40;77.70;;;;;;5035435;28;20217;-65
2022/07/18 11:21:38;;;;;;;3.97;1.60;;;26.30;78.20;;;;;;5050877;28;20217;-67
2022/07/18 11:24:07;;;;;;;1.75;1.20;;;26.20;77.90;;;;;;5041978;28;20213;-66
2022/07/18 11:26:35;;;;;;;2.13;1.48;;;26.10;78.40;;;;;;5054940;28;20275;-67
2022/07/18 11:29:06;;;;;;;2.03;1.48;;;25.90;78.00;;;;;;5054921;28;20202;-67
2022/07/18 11:31:43;;;;;;;1.90;1.45;;;25.60;78.30;;;;;;5051255;28;21034;-67
2022/07/18 11:34:10;;;;;;;1.90;1.20;;;25.40;79.20;;;;;;5054263;28;20210;-66
2022/07/18 11:36:40;;;;;;;4.65;1.45;;;25.30;80.10;;;;;;5053665;28;20614;-66
2022/07/18 11:39:07;;;;;;;4.43;1.48;;;25.10;80.30;;;;;;5054689;28;20198;-66
2022/07/18 11:41:36;;;;;;;3.03;1.50;;;25.00;81.40;;;;;;5054080;28;20214;-65
2022/07/18 11:44:05;;;;;;;2.78;1.42;;;24.80;81.50;;;;;;5047896;28;20598;-65
2022/07/18 11:46:31;;;;;;;2.40;1.42;;;24.60;82.30;;;;;;5052448;28;20248;-66
2022/07/18 11:49:00;;;;;;;1.75;1.33;;;24.50;82.80;;;;;;5046297;28;20209;-66
2022/07/18 11:51:34;;;;;;;1.83;1.67;;;24.40;83.30;;;;;;5050690;28;20222;-64
2022/07/18 11:54:01;;;;;;;2.72;1.48;;;24.40;83.40;;;;;;5053854;28;20228;-66
2022/07/18 11:56:29;;;;;;;1.52;1.42;;;24.60;83.30;;;;;;5051584;28;20206;-69
2022/07/18 11:58:56;;;;;;;2.38;1.35;;;24.80;83.40;;;;;;5051233;28;20216;-70
2022/07/18 12:01:31;;;;;;;1.80;1.20;;;25.20;82.60;;;;;;5035993;28;21465;-70
2022/07/18 12:03:58;;;;;;;2.83;1.45;;;25.60;81.10;;;;;;5042503;28;20213;-70
2022/07/18 12:06:27;;;;;;;2.33;1.13;;;25.80;79.80;;;;;;5045414;28;20230;-70
2022/07/18 12:08:56;;;;;;;2.63;1.38;;;26.00;79.50;;;;;;5043595;28;20592;-69
2022/07/18 12:11:28;;;;;;;2.50;1.35;;;26.10;79.20;;;;;;5055070;28;20284;-70
2022/07/18 12:13:56;;;;;;;3.22;1.40;;;26.30;79.10;;;;;;5053513;28;20560;-69
2022/07/18 12:16:32;;;;;;;2.10;1.42;;;26.50;78.90;;;;;;5047655;28;20206;-72
2022/07/18 12:19:03;;;;;;;1.70;1.38;;;26.90;78.60;;;;;;5050878;28;20209;-70
2022/07/18 12:21:44;;;;;;;3.60;1.40;;;27.20;77.10;;;;;;5043763;28;20609;-70
2022/07/18 12:24:29;;;;;;;2.05;1.58;;;27.50;76.10;;;;;;5047134;28;20205;-70
2022/07/18 12:27:16;;;;;;;2.35;1.20;;;27.80;75.40;;;;;;5052222;28;20838;-70
2022/07/18 12:30:04;;;;;;;1.88;1.23;;;28.30;73.50;;;;;;5052778;28;20336;-66
2022/07/18 12:32:46;;;;;;;3.75;1.42;;;28.40;72.20;;;;;;5053889;28;20616;-66
2022/07/18 12:35:16;;;;;;;1.35;1.25;;;28.30;72.50;;;;;;5050529;28;20210;-67
2022/07/18 12:37:52;;;;;;;1.67;1.50;;;28.30;71.50;;;;;;5043484;28;20636;-67
2022/07/18 12:40:19;;;;;;;3.10;1.35;;;28.10;71.60;;;;;;5050324;28;20197;-66
2022/07/18 12:42:46;;;;;;;2.85;1.20;;;28.10;71.20;;;;;;5049922;28;20201;-67
2022/07/18 12:45:14;;;;;;;2.22;1.30;;;27.90;71.20;;;;;;5042702;28;20297;-66
2022/07/18 12:47:42;;;;;;;2.13;1.13;;;27.70;71.70;;;;;;5050317;28;20235;-66
2022/07/18 12:50:10;;;;;;;1.52;1.27;;;27.70;71.90;;;;;;5038694;28;20207;-66
2022/07/18 12:52:36;;;;;;;2.22;1.40;;;27.60;72.10;;;;;;5043369;28;20224;-66
2022/07/18 12:55:04;;;;;;;3.75;1.15;;;27.50;72.40;;;;;;5044655;28;20198;-65